Time;durP1;ratioP1;P1;durP2;ratioP2;P2;SDS_P1;SDS_P2;PMS_P1;PMS_P2;Temp;Humidity;BMP_temperature;BMP_pressure;BME280_temperature;BME280_humidity;BME280_pressure;Samples;Min_cycle;Max_cycle;Signal;HPM_P1;HPM_P2
2022/07/14 00:06:07;;;;;;;14.30;12.45;;;;;;;;;;21167648;28;20064;-65
2022/07/14 00:16:09;;;;;;;11.70;8.48;;;;;;;;;;21170380;28;20083;-63
2022/07/14 00:26:11;;;;;;;9.43;7.55;;;;;;;;;;21168811;28;20512;-64
2022/07/14 00:36:13;;;;;;;7.93;6.63;;;;;;;;;;21165698;28;20052;-64
2022/07/14 00:46:14;;;;;;;7.65;6.55;;;;;;;;;;21162515;28;20074;-62
2022/07/14 00:56:16;;;;;;;8.25;5.78;;;;;;;;;;21166617;28;20051;-64
2022/07/14 01:06:18;;;;;;;7.88;5.30;;;;;;;;;;21178500;28;20055;-65
2022/07/14 01:16:20;;;;;;;7.50;5.85;;;;;;;;;;21178634;28;20051;-64
2022/07/14 01:26:23;;;;;;;10.30;8.00;;;;;;;;;;21177035;28;20043;-64
2022/07/14 01:36:26;;;;;;;12.00;9.37;;;;;;;;;;21176526;28;20048;-64
2022/07/14 01:46:28;;;;;;;9.48;8.40;;;;;;;;;;21176525;28;20131;-65
2022/07/14 01:56:34;;;;;;;8.23;5.80;;;;;;;;;;21175906;28;20047;-64
2022/07/14 02:06:49;;;;;;;7.25;6.35;;;;;;;;;;21172720;28;20519;-65
2022/07/14 02:16:57;;;;;;;7.25;6.10;;;;;;;;;;21172752;28;20161;-64
2022/07/14 02:27:04;;;;;;;7.60;6.10;;;;;;;;;;21172815;28;20051;-64
2022/07/14 02:37:07;;;;;;;9.43;6.75;;;;;;;;;;21154591;28;20051;-66
2022/07/14 02:47:10;;;;;;;7.18;6.47;;;;;;;;;;21171392;28;20122;-65
2022/07/14 02:57:18;;;;;;;6.63;5.00;;;;;;;;;;21173069;28;20471;-66
2022/07/14 03:07:23;;;;;;;5.03;4.20;;;;;;;;;;21168527;28;20460;-65
2022/07/14 03:17:31;;;;;;;4.45;3.95;;;;;;;;;;21168228;28;20426;-65
2022/07/14 03:27:46;;;;;;;8.73;3.80;;;;;;;;;;21167514;28;20052;-64
2022/07/14 03:37:54;;;;;;;6.20;4.65;;;;;;;;;;21166888;28;20051;-63
2022/07/14 03:48:14;;;;;;;5.75;3.83;;;;;;;;;;21165578;28;20115;-65
2022/07/14 03:58:15;;;;;;;6.45;4.45;;;;;;;;;;21164979;28;20150;-65
2022/07/14 04:08:18;;;;;;;4.78;4.28;;;;;;;;;;21163669;28;20055;-64
2022/07/14 04:18:20;;;;;;;8.57;4.40;;;;;;;;;;21163837;28;20055;-64
2022/07/14 04:28:22;;;;;;;5.03;4.53;;;;;;;;;;21163373;28;20044;-63
2022/07/14 04:38:25;;;;;;;7.95;4.68;;;;;;;;;;21144545;28;20055;-65
2022/07/14 04:48:31;;;;;;;4.65;4.25;;;;;;;;;;21163022;28;20385;-64
2022/07/14 04:58:33;;;;;;;8.60;4.57;;;;;;;;;;21165049;28;20403;-66
2022/07/14 05:08:35;;;;;;;6.03;5.15;;;;;;;;;;21162215;28;20058;-66
2022/07/14 05:18:37;;;;;;;6.20;5.20;;;;;;;;;;21161591;28;20074;-63
2022/07/14 05:28:40;;;;;;;6.80;5.13;;;;;;;;;;21161595;28;20047;-64
2022/07/14 05:38:43;;;;;;;6.10;4.68;;;;;;;;;;21160677;28;20385;-65
2022/07/14 05:48:45;;;;;;;7.53;5.10;;;;;;;;;;21172278;28;20047;-66
2022/07/14 05:58:48;;;;;;;6.82;5.18;;;;;;;;;;21175578;28;20052;-65
2022/07/14 06:08:50;;;;;;;9.02;5.30;;;;;;;;;;21173312;28;20079;-65
2022/07/14 06:18:52;;;;;;;8.48;4.80;;;;;;;;;;21174910;28;20134;-65
2022/07/14 06:28:54;;;;;;;9.23;5.60;;;;;;;;;;21175218;28;20164;-66
2022/07/14 06:38:57;;;;;;;10.82;5.40;;;;;;;;;;21172921;28;20055;-64
2022/07/14 06:49:00;;;;;;;11.88;4.68;;;;;;;;;;21171445;28;20074;-64
2022/07/14 06:59:02;;;;;;;15.57;5.40;;;;;;;;;;21152169;28;20052;-66
2022/07/14 07:09:04;;;;;;;10.82;5.07;;;;;;;;;;21168783;28;20058;-66
2022/07/14 07:19:07;;;;;;;9.18;5.90;;;;;;;;;;21168560;28;20471;-66
2022/07/14 07:29:09;;;;;;;6.95;4.75;;;;;;;;;;21167809;28;20453;-65
2022/07/14 07:39:11;;;;;;;6.47;4.75;;;;;;;;;;21166006;28;20071;-65
2022/07/14 07:49:13;;;;;;;4.97;3.33;;;;;;;;;;21165317;28;20126;-64
2022/07/14 07:59:16;;;;;;;7.13;3.78;;;;;;;;;;21164731;28;20051;-64
2022/07/14 08:09:18;;;;;;;6.15;3.30;;;;;;;;;;21163865;27;20446;-64
2022/07/14 08:19:20;;;;;;;6.13;3.00;;;;;;;;;;21164341;28;20434;-64
2022/07/14 08:29:23;;;;;;;9.32;3.55;;;;;;;;;;21124044;28;20472;-63
2022/07/14 08:39:25;;;;;;;4.43;2.80;;;;;;;;;;21116530;28;20093;-62
2022/07/14 08:49:27;;;;;;;8.02;2.58;;;;;;;;;;21160881;28;20050;-57
2022/07/14 08:59:29;;;;;;;38.03;6.15;;;;;;;;;;21161533;28;20055;-60
2022/07/14 09:09:34;;;;;;;11.32;3.13;;;;;;;;;;21161134;28;20055;-63
2022/07/14 09:19:36;;;;;;;52.03;6.55;;;;;;;;;;21168462;28;20142;-56
2022/07/14 09:29:40;;;;;;;5.80;2.80;;;;;;;;;;21176780;28;20047;-70
2022/07/14 09:39:55;;;;;;;3.80;2.60;;;;;;;;;;21097172;28;20078;-72
2022/07/14 09:49:58;;;;;;;3.63;2.90;;;;;;;;;;21090934;28;20056;-60
2022/07/14 10:00:11;;;;;;;5.65;3.05;;;;;;;;;;21088437;28;20503;-61
2022/07/14 10:10:15;;;;;;;6.78;2.75;;;;;;;;;;21136125;28;20043;-62
2022/07/14 10:20:19;;;;;;;4.80;2.73;;;;;;;;;;21145711;28;20408;-69
2022/07/14 10:30:30;;;;;;;5.97;2.67;;;;;;;;;;21087083;28;20412;-60
2022/07/14 10:40:32;;;;;;;8.23;3.13;;;;;;;;;;21086976;28;20052;-67
2022/07/14 10:50:34;;;;;;;7.40;3.30;;;;;;;;;;21085957;28;20051;-61
2022/07/14 11:00:43;;;;;;;5.15;2.90;;;;;;;;;;21093334;28;20081;-72
2022/07/14 11:10:45;;;;;;;4.72;3.15;;;;;;;;;;21084261;28;20052;-63
2022/07/14 11:21:00;;;;;;;5.07;3.20;;;;;;;;;;21081732;28;20083;-62
2022/07/14 11:31:12;;;;;;;8.25;3.58;;;;;;;;;;21082627;28;20048;-59
2022/07/14 11:41:14;;;;;;;7.78;3.78;;;;;;;;;;21082159;28;20074;-59
2022/07/14 11:51:19;;;;;;;9.80;4.55;;;;;;;;;;21081715;28;20051;-58
2022/07/14 12:01:22;;;;;;;7.93;5.63;;;;;;;;;;21081117;28;20071;-59
2022/07/14 12:11:24;;;;;;;9.65;6.00;;;;;;;;;;21087270;28;20051;-71
2022/07/14 12:21:34;;;;;;;7.72;5.35;;;;;;;;;;21095591;28;20146;-68
2022/07/14 12:31:40;;;;;;;14.30;5.75;;;;;;;;;;21104866;28;20056;-70
2022/07/14 12:41:44;;;;;;;11.77;6.78;;;;;;;;;;21105466;28;20055;-72
2022/07/14 12:51:46;;;;;;;10.35;6.80;;;;;;;;;;21107073;28;20044;-73
2022/07/14 13:01:47;;;;;;;8.10;5.55;;;;;;;;;;21100087;28;20491;-76
2022/07/14 13:11:49;;;;;;;10.25;6.00;;;;;;;;;;21095015;28;20052;-76
2022/07/14 13:22:03;;;;;;;10.07;5.93;;;;;;;;;;21094473;28;20052;-77
2022/07/14 13:32:07;;;;;;;10.38;5.95;;;;;;;;;;21094117;28;20216;-76
2022/07/14 13:42:09;;;;;;;8.88;5.90;;;;;;;;;;21092724;28;20048;-77
2022/07/14 13:52:13;;;;;;;13.45;5.70;;;;;;;;;;21091337;28;20044;-71
2022/07/14 14:02:15;;;;;;;13.55;6.45;;;;;;;;;;21089742;28;20047;-75
2022/07/14 14:12:18;;;;;;;13.02;6.35;;;;;;;;;;21088625;28;20129;-77
2022/07/14 14:22:20;;;;;;;11.90;5.63;;;;;;;;;;21089429;28;20048;-68
2022/07/14 14:32:22;;;;;;;9.35;5.78;;;;;;;;;;21089275;28;20043;-79
2022/07/14 14:42:23;;;;;;;13.40;5.53;;;;;;;;;;21087821;28;20098;-78
2022/07/14 14:52:27;;;;;;;11.48;5.63;;;;;;;;;;21087748;28;20044;-73
2022/07/14 15:02:30;;;;;;;10.30;5.78;;;;;;;;;;21086455;28;20476;-68
2022/07/14 15:12:33;;;;;;;11.98;5.32;;;;;;;;;;21084288;28;20496;-70
2022/07/14 15:22:35;;;;;;;12.30;5.60;;;;;;;;;;21083815;28;20048;-72
2022/07/14 15:32:37;;;;;;;9.05;5.20;;;;;;;;;;21084041;28;20515;-73
2022/07/14 15:42:39;;;;;;;12.68;6.15;;;;;;;;;;21082946;28;20044;-73
2022/07/14 15:52:41;;;;;;;9.38;6.18;;;;;;;;;;21082106;28;20040;-78
2022/07/14 16:02:43;;;;;;;11.90;5.90;;;;;;;;;;21082858;28;20480;-72
2022/07/14 16:12:45;;;;;;;11.70;6.50;;;;;;;;;;21081985;28;20412;-69
2022/07/14 16:22:51;;;;;;;13.70;6.05;;;;;;;;;;21084043;28;20101;-80
2022/07/14 16:32:53;;;;;;;10.50;6.13;;;;;;;;;;21081346;28;20048;-72
2022/07/14 16:42:55;;;;;;;11.10;5.38;;;;;;;;;;21081381;28;20412;-75
2022/07/14 16:52:56;;;;;;;15.40;7.30;;;;;;;;;;21091270;28;20089;-74
2022/07/14 17:02:59;;;;;;;7.80;5.67;;;;;;;;;;21107274;28;20161;-71
2022/07/14 17:13:01;;;;;;;11.50;5.38;;;;;;;;;;21078033;28;20052;-59
2022/07/14 17:23:03;;;;;;;11.48;5.53;;;;;;;;;;21066229;28;20483;-70
2022/07/14 17:33:05;;;;;;;13.32;5.47;;;;;;;;;;21077330;28;20059;-73
2022/07/14 17:43:10;;;;;;;8.88;4.70;;;;;;;;;;21111082;28;20091;-73
2022/07/14 17:53:12;;;;;;;14.88;5.05;;;;;;;;;;21091923;28;20051;-74
2022/07/14 18:03:14;;;;;;;10.20;4.05;;;;;;;;;;21089608;28;20055;-74
2022/07/14 18:13:17;;;;;;;14.80;4.03;;;;;;;;;;21088863;28;20052;-72
2022/07/14 18:23:19;;;;;;;12.25;3.70;;;;;;;;;;21089750;28;20442;-72
2022/07/14 18:33:21;;;;;;;10.13;4.43;;;;;;;;;;21088468;28;20117;-73
2022/07/14 18:43:22;;;;;;;15.27;5.32;;;;;;;;;;21087675;28;20056;-74
2022/07/14 18:53:25;;;;;;;5.80;3.70;;;;;;;;;;21085773;28;20047;-73
2022/07/14 19:03:27;;;;;;;10.90;4.82;;;;;;;;;;21085099;28;20063;-73
2022/07/14 19:13:30;;;;;;;7.65;3.40;;;;;;;;;;21083467;28;20048;-73
2022/07/14 19:23:32;;;;;;;10.05;3.20;;;;;;;;;;21083264;28;20151;-73
2022/07/14 19:33:34;;;;;;;9.20;4.15;;;;;;;;;;21082571;28;20097;-59
2022/07/14 19:43:54;;;;;;;6.55;2.95;;;;;;;;;;21081284;28;20454;-68
2022/07/14 19:54:00;;;;;;;16.00;3.58;;;;;;;;;;21084012;28;20052;-65
2022/07/14 20:04:04;;;;;;;10.65;3.60;;;;;;;;;;21067870;28;20540;-63
2022/07/14 20:14:08;;;;;;;11.07;3.50;;;;;;;;;;21165263;28;20082;-62
2022/07/14 20:24:09;;;;;;;10.10;3.10;;;;;;;;;;21164741;28;20635;-62
2022/07/14 20:34:12;;;;;;;15.15;3.55;;;;;;;;;;21149065;28;20449;-68
2022/07/14 20:44:14;;;;;;;17.98;3.83;;;;;;;;;;21163675;28;20055;-74
2022/07/14 20:54:16;;;;;;;13.75;3.58;;;;;;;;;;21145673;28;20130;-73
2022/07/14 21:04:18;;;;;;;18.48;4.10;;;;;;;;;;21162861;28;20568;-72
2022/07/14 21:14:20;;;;;;;11.25;3.60;;;;;;;;;;21166472;28;20047;-75
2022/07/14 21:24:22;;;;;;;11.18;4.30;;;;;;;;;;21179137;28;20345;-72
2022/07/14 21:34:24;;;;;;;12.93;4.55;;;;;;;;;;21178729;28;20480;-72
2022/07/14 21:44:26;;;;;;;10.05;4.35;;;;;;;;;;21176596;28;20048;-72
2022/07/14 21:54:28;;;;;;;11.32;4.35;;;;;;;;;;21176342;28;20050;-72
2022/07/14 22:04:33;;;;;;;14.35;4.20;;;;;;;;;;21139168;28;20052;-71
2022/07/14 22:14:35;;;;;;;10.98;4.55;;;;;;;;;;21089640;28;20044;-71
2022/07/14 22:24:38;;;;;;;15.68;4.63;;;;;;;;;;21087470;28;20059;-71
2022/07/14 22:34:43;;;;;;;13.02;5.07;;;;;;;;;;21089106;28;20586;-72
2022/07/14 22:44:46;;;;;;;15.52;4.82;;;;;;;;;;21088838;28;20048;-71
2022/07/14 22:54:48;;;;;;;14.57;5.68;;;;;;;;;;21069875;28;20044;-72
2022/07/14 23:04:51;;;;;;;14.43;4.68;;;;;;;;;;21086648;28;20052;-71
2022/07/14 23:25:14;;;;;;;8.05;5.45;;;;;;;;;;21085003;28;20101;-73
2022/07/14 23:35:17;;;;;;;10.38;5.32;;;;;;;;;;21084320;28;20058;-71
2022/07/14 23:45:19;;;;;;;8.18;5.47;;;;;;;;;;21082986;28;20493;-72
2022/07/14 23:55:21;;;;;;;9.30;4.68;;;;;;;;;;21063295;28;20458;-72
